Time;durP1;ratioP1;P1;durP2;ratioP2;P2;SDS_P1;SDS_P2;PMS_P1;PMS_P2;Temp;Humidity;BMP_temperature;BMP_pressure;BME280_temperature;BME280_humidity;BME280_pressure;Samples;Min_cycle;Max_cycle;Signal;HPM_P1;HPM_P2
2024/01/01 00:01:45;;;;;;;2.13;1.88;;;12.30;66.60;;;;;;5074863;28;20491;-71
2024/01/01 00:04:11;;;;;;;1.42;1.33;;;12.30;66.70;;;;;;5074855;28;20039;-71
2024/01/01 00:06:37;;;;;;;0.60;0.60;;;12.30;66.50;;;;;;5074806;28;20040;-71
2024/01/01 00:09:02;;;;;;;0.70;0.70;;;12.30;66.70;;;;;;5074579;28;20029;-71
2024/01/01 00:11:28;;;;;;;0.52;0.52;;;12.30;66.80;;;;;;5074529;28;20056;-72
2024/01/01 00:13:53;;;;;;;0.60;0.60;;;12.40;66.80;;;;;;5074483;28;20025;-71
2024/01/01 00:16:19;;;;;;;0.60;0.60;;;12.40;66.60;;;;;;5074483;28;20142;-72
2024/01/01 00:18:44;;;;;;;1.00;0.95;;;12.30;66.40;;;;;;5074192;28;20029;-71
2024/01/01 00:21:10;;;;;;;0.88;0.88;;;12.30;66.30;;;;;;5074503;28;20055;-72
2024/01/01 00:23:35;;;;;;;1.13;1.13;;;12.30;66.90;;;;;;5074432;28;20388;-71
2024/01/01 00:26:01;;;;;;;0.57;0.57;;;12.30;66.90;;;;;;5074349;28;20031;-71
2024/01/01 00:28:26;;;;;;;4.55;1.90;;;12.30;66.70;;;;;;5074756;28;20044;-71
2024/01/01 00:30:52;;;;;;;0.85;0.85;;;12.30;66.70;;;;;;5074156;28;20098;-72
2024/01/01 00:33:17;;;;;;;0.80;0.80;;;12.30;66.80;;;;;;5074468;28;20468;-72
2024/01/01 00:35:44;;;;;;;0.70;0.70;;;12.30;66.80;;;;;;5074350;28;20020;-72
2024/01/01 00:38:09;;;;;;;0.70;0.70;;;12.30;66.70;;;;;;5074384;28;20028;-72
2024/01/01 00:40:36;;;;;;;0.50;0.50;;;12.30;66.80;;;;;;5074010;28;20400;-72
2024/01/01 00:43:02;;;;;;;2.00;1.10;;;12.30;66.80;;;;;;5073084;28;20082;-72
2024/01/01 00:45:28;;;;;;;0.90;0.90;;;12.40;66.60;;;;;;5073846;28;20029;-72
2024/01/01 00:47:53;;;;;;;0.80;0.80;;;12.40;66.90;;;;;;5074298;28;20040;-72
2024/01/01 00:50:19;;;;;;;0.95;0.95;;;12.40;67.00;;;;;;5073700;28;20108;-72
2024/01/01 00:52:44;;;;;;;0.38;0.38;;;12.40;66.70;;;;;;5074415;28;20021;-72
2024/01/01 00:55:10;;;;;;;0.95;0.95;;;12.40;66.90;;;;;;5073716;28;20037;-72
2024/01/01 00:57:35;;;;;;;1.02;1.02;;;12.40;66.50;;;;;;5074006;28;20025;-72
2024/01/01 01:00:01;;;;;;;0.73;0.73;;;12.40;66.70;;;;;;5073848;28;20032;-72
2024/01/01 01:02:26;;;;;;;0.60;0.60;;;12.50;66.80;;;;;;5073864;28;20044;-72
2024/01/01 01:04:52;;;;;;;1.27;1.02;;;12.50;66.40;;;;;;5073553;28;20033;-72
2024/01/01 01:07:18;;;;;;;0.50;0.50;;;12.50;66.20;;;;;;5073915;28;20115;-71
2024/01/01 01:09:44;;;;;;;0.60;0.60;;;12.60;66.30;;;;;;5073429;28;20108;-72
2024/01/01 01:12:09;;;;;;;1.60;1.23;;;12.60;65.90;;;;;;5073758;28;20466;-72
2024/01/01 01:14:35;;;;;;;1.05;1.02;;;12.60;65.40;;;;;;5073422;28;20052;-72
2024/01/01 01:17:00;;;;;;;5.30;0.73;;;12.50;65.00;;;;;;5073450;28;20066;-72
2024/01/01 01:19:26;;;;;;;0.60;0.60;;;12.50;65.10;;;;;;5073348;28;20120;-72
2024/01/01 01:21:51;;;;;;;0.43;0.43;;;12.50;65.10;;;;;;5073589;28;20037;-72
2024/01/01 01:24:18;;;;;;;0.98;0.98;;;12.50;65.10;;;;;;5073249;28;20078;-72
2024/01/01 01:26:43;;;;;;;0.50;0.50;;;12.50;65.20;;;;;;5073162;28;20024;-72
2024/01/01 01:29:12;;;;;;;1.23;1.17;;;12.50;65.50;;;;;;5073054;28;20037;-72
2024/01/01 01:31:37;;;;;;;1.40;1.30;;;12.50;65.00;;;;;;5073158;28;20043;-72
2024/01/01 01:34:03;;;;;;;0.60;0.60;;;12.40;64.80;;;;;;5072869;28;20029;-72
2024/01/01 01:36:28;;;;;;;0.70;0.70;;;12.30;64.70;;;;;;5072902;28;20412;-72
2024/01/01 01:38:54;;;;;;;1.38;1.15;;;12.30;64.50;;;;;;5072927;28;20032;-73
2024/01/01 01:41:20;;;;;;;0.63;0.63;;;12.30;64.60;;;;;;5072837;28;20446;-72
2024/01/01 01:43:45;;;;;;;1.30;1.23;;;12.20;64.70;;;;;;5055114;28;20036;-72
2024/01/01 01:46:13;;;;;;;0.50;0.50;;;12.10;64.70;;;;;;5072834;28;20061;-73
2024/01/01 01:48:39;;;;;;;0.60;0.60;;;12.10;64.70;;;;;;5072739;28;20541;-72
2024/01/01 01:51:05;;;;;;;1.95;1.15;;;12.10;65.00;;;;;;5072675;28;20058;-72
2024/01/01 01:53:31;;;;;;;0.95;0.95;;;12.20;65.20;;;;;;5072659;28;20040;-72
2024/01/01 01:56:01;;;;;;;1.23;1.13;;;12.10;64.60;;;;;;5072213;28;20103;-72
2024/01/01 01:58:28;;;;;;;0.93;0.93;;;12.20;64.60;;;;;;5073191;28;20032;-72
2024/01/01 02:00:54;;;;;;;0.50;0.50;;;12.20;64.50;;;;;;5072497;28;20483;-72
2024/01/01 02:03:20;;;;;;;0.60;0.60;;;12.30;64.70;;;;;;5072858;28;20031;-72
2024/01/01 02:05:46;;;;;;;0.50;0.50;;;12.40;64.60;;;;;;5072353;28;20369;-72
2024/01/01 02:08:12;;;;;;;0.75;0.75;;;12.40;64.50;;;;;;5072771;28;20368;-72
2024/01/01 02:10:37;;;;;;;9.50;0.88;;;12.50;65.00;;;;;;5072356;28;20048;-69
2024/01/01 02:13:03;;;;;;;0.60;0.60;;;12.60;64.80;;;;;;5072804;28;20016;-69
2024/01/01 02:15:29;;;;;;;0.50;0.50;;;12.60;63.60;;;;;;5072370;28;20039;-69
2024/01/01 02:17:54;;;;;;;0.47;0.47;;;12.60;63.50;;;;;;5072507;28;20032;-69
2024/01/01 02:20:20;;;;;;;0.35;0.35;;;12.60;63.50;;;;;;5072139;28;20101;-69
2024/01/01 02:22:45;;;;;;;0.75;0.75;;;12.60;63.80;;;;;;5072405;28;20099;-68
2024/01/01 02:25:12;;;;;;;0.75;0.75;;;12.70;64.10;;;;;;5072116;28;20033;-68
2024/01/01 02:27:38;;;;;;;0.50;0.50;;;12.70;63.90;;;;;;5072296;28;20387;-69
2024/01/01 02:30:06;;;;;;;0.98;0.95;;;12.70;63.90;;;;;;5071875;28;20044;-69
2024/01/01 02:32:31;;;;;;;0.80;0.80;;;12.80;63.10;;;;;;5072176;28;20017;-68
2024/01/01 02:34:58;;;;;;;1.25;1.15;;;12.80;63.10;;;;;;5071819;28;20514;-68
2024/01/01 02:37:23;;;;;;;1.23;0.80;;;12.80;63.10;;;;;;5071961;28;20020;-68
2024/01/01 02:39:48;;;;;;;0.80;0.80;;;12.80;62.70;;;;;;5071627;28;20480;-68
2024/01/01 02:42:14;;;;;;;0.60;0.60;;;12.80;62.90;;;;;;5071925;28;20032;-68
2024/01/01 02:44:40;;;;;;;0.50;0.50;;;12.80;62.10;;;;;;5071930;28;20423;-68
2024/01/01 02:47:05;;;;;;;1.08;1.08;;;12.80;62.20;;;;;;5071727;28;20040;-68
2024/01/01 02:49:30;;;;;;;0.75;0.75;;;12.80;62.40;;;;;;5071548;28;20439;-68
2024/01/01 02:51:56;;;;;;;0.60;0.60;;;12.90;62.50;;;;;;5071605;28;20222;-68
2024/01/01 02:54:21;;;;;;;0.88;0.88;;;12.80;62.00;;;;;;5071445;28;20036;-68
2024/01/01 02:56:47;;;;;;;1.25;1.25;;;12.80;62.10;;;;;;5071491;28;20036;-68
2024/01/01 02:59:13;;;;;;;30.88;1.58;;;12.90;62.30;;;;;;5071744;28;20488;-68
2024/01/01 03:01:39;;;;;;;1.08;0.98;;;12.80;61.80;;;;;;5071515;28;20032;-68
2024/01/01 03:04:04;;;;;;;0.85;0.85;;;12.80;61.60;;;;;;5053441;28;20036;-67
2024/01/01 03:06:29;;;;;;;1.05;1.05;;;12.90;61.40;;;;;;5070670;28;20468;-68
2024/01/01 03:08:55;;;;;;;0.50;0.50;;;12.90;60.80;;;;;;5071336;28;20059;-67
2024/01/01 03:11:20;;;;;;;0.50;0.50;;;12.90;61.30;;;;;;5071339;28;20099;-67
2024/01/01 03:13:46;;;;;;;1.08;1.02;;;12.90;61.50;;;;;;5071691;28;20043;-67
2024/01/01 03:16:14;;;;;;;0.43;0.43;;;12.90;60.80;;;;;;5071346;28;20379;-68
2024/01/01 03:18:39;;;;;;;0.80;0.80;;;12.90;60.70;;;;;;5071428;28;20067;-68
2024/01/01 03:21:05;;;;;;;0.40;0.40;;;12.90;60.90;;;;;;5071476;28;20052;-67
2024/01/01 03:23:30;;;;;;;0.50;0.50;;;13.00;60.00;;;;;;5053296;28;20035;-68
2024/01/01 03:25:56;;;;;;;1.88;1.50;;;12.90;60.60;;;;;;5071202;28;20495;-68
2024/01/01 03:28:22;;;;;;;0.40;0.40;;;12.90;60.30;;;;;;5071626;28;20150;-68
2024/01/01 03:30:47;;;;;;;0.50;0.50;;;12.90;60.90;;;;;;5071439;28;20024;-68
2024/01/01 03:33:13;;;;;;;0.70;0.70;;;13.00;60.90;;;;;;5071835;28;20032;-68
2024/01/01 03:35:38;;;;;;;0.60;0.60;;;13.00;60.60;;;;;;5071049;28;20017;-69
2024/01/01 03:38:04;;;;;;;1.80;1.45;;;13.00;60.30;;;;;;5071356;28;20039;-68
2024/01/01 03:40:30;;;;;;;0.60;0.60;;;13.00;60.30;;;;;;5071040;28;20111;-68
2024/01/01 03:42:56;;;;;;;1.08;0.98;;;13.00;60.40;;;;;;5071367;28;20036;-68
2024/01/01 03:45:21;;;;;;;0.50;0.50;;;13.00;59.70;;;;;;5071290;28;20028;-68
2024/01/01 03:47:47;;;;;;;0.70;0.70;;;13.00;59.90;;;;;;5071512;28;20040;-67
2024/01/01 03:50:14;;;;;;;0.50;0.50;;;13.00;59.70;;;;;;5070910;28;20056;-68
2024/01/01 03:52:40;;;;;;;1.50;1.40;;;13.00;59.40;;;;;;5071299;28;20021;-68
2024/01/01 03:55:06;;;;;;;0.40;0.40;;;12.90;60.00;;;;;;5070733;28;20115;-68
2024/01/01 03:57:33;;;;;;;0.65;0.65;;;13.00;58.90;;;;;;5071198;28;20559;-69
2024/01/01 03:59:58;;;;;;;0.77;0.77;;;13.00;59.60;;;;;;5052910;28;20434;-68
2024/01/01 04:02:24;;;;;;;0.40;0.40;;;12.90;59.80;;;;;;5071547;28;20031;-68
2024/01/01 04:04:50;;;;;;;0.60;0.60;;;12.90;59.60;;;;;;5070929;28;20082;-68
2024/01/01 04:07:16;;;;;;;0.40;0.40;;;12.90;59.40;;;;;;5071001;28;20251;-68
2024/01/01 04:09:45;;;;;;;0.85;0.85;;;12.90;58.90;;;;;;5070735;28;20059;-68
2024/01/01 04:12:10;;;;;;;0.50;0.50;;;12.80;58.80;;;;;;5070831;28;20025;-68
2024/01/01 04:14:36;;;;;;;0.50;0.50;;;12.80;58.90;;;;;;5070753;28;20105;-68
2024/01/01 04:17:03;;;;;;;0.50;0.50;;;12.70;58.90;;;;;;5070859;28;20066;-68
2024/01/01 04:19:29;;;;;;;0.75;0.75;;;12.70;59.10;;;;;;5074653;28;20024;-69
2024/01/01 04:21:54;;;;;;;0.47;0.47;;;12.60;59.90;;;;;;5074400;28;20044;-70
2024/01/01 04:24:20;;;;;;;0.55;0.55;;;12.50;60.60;;;;;;5074348;28;20045;-69
2024/01/01 04:26:45;;;;;;;0.73;0.73;;;12.30;61.80;;;;;;5074430;28;20376;-69
2024/01/01 04:29:12;;;;;;;0.50;0.50;;;12.20;62.80;;;;;;5074205;28;20040;-69
2024/01/01 04:31:37;;;;;;;0.40;0.40;;;12.00;63.70;;;;;;5074462;28;20059;-69
2024/01/01 04:34:03;;;;;;;0.55;0.55;;;11.90;64.30;;;;;;5074629;28;20056;-70
2024/01/01 04:36:29;;;;;;;0.40;0.40;;;11.80;64.60;;;;;;5074355;28;20028;-70
2024/01/01 04:38:55;;;;;;;0.60;0.60;;;11.70;65.30;;;;;;5073849;28;20071;-72
2024/01/01 04:41:20;;;;;;;0.50;0.50;;;11.60;65.60;;;;;;5073971;28;20060;-71
2024/01/01 04:43:46;;;;;;;0.50;0.50;;;11.50;66.10;;;;;;5056437;28;20052;-70
2024/01/01 04:46:11;;;;;;;0.50;0.50;;;11.50;66.40;;;;;;5073865;28;20036;-70
2024/01/01 04:48:37;;;;;;;0.50;0.50;;;11.40;66.70;;;;;;5073860;28;20048;-70
2024/01/01 04:51:04;;;;;;;0.50;0.50;;;11.40;66.70;;;;;;5074052;28;20549;-70
2024/01/01 04:53:29;;;;;;;0.65;0.65;;;11.30;66.90;;;;;;5074337;28;20016;-70
2024/01/01 04:55:55;;;;;;;0.40;0.40;;;11.30;67.20;;;;;;5073748;28;20037;-70
2024/01/01 04:58:20;;;;;;;0.50;0.50;;;11.30;67.30;;;;;;5073478;28;20040;-69
2024/01/01 05:00:46;;;;;;;0.50;0.50;;;11.30;67.50;;;;;;5073739;28;20032;-70
2024/01/01 05:03:12;;;;;;;0.50;0.50;;;11.30;67.30;;;;;;5074072;28;20036;-70
2024/01/01 05:05:37;;;;;;;0.50;0.50;;;11.30;67.20;;;;;;5073741;28;20400;-70
2024/01/01 05:08:03;;;;;;;0.52;0.52;;;11.30;67.30;;;;;;5073914;28;20123;-69
2024/01/01 05:10:28;;;;;;;0.52;0.52;;;11.30;67.40;;;;;;5073453;28;20457;-68
2024/01/01 05:12:54;;;;;;;0.47;0.47;;;11.30;67.50;;;;;;5073863;28;20054;-69
2024/01/01 05:15:19;;;;;;;0.55;0.50;;;11.40;67.60;;;;;;5073395;28;20041;-68
2024/01/01 05:17:45;;;;;;;2.70;0.80;;;11.40;67.70;;;;;;5073752;28;20115;-69
2024/01/01 05:20:11;;;;;;;0.40;0.40;;;11.40;67.60;;;;;;5073571;28;20373;-69
2024/01/01 05:22:36;;;;;;;0.40;0.40;;;11.40;67.70;;;;;;5073282;28;20028;-69
2024/01/01 05:25:02;;;;;;;0.50;0.50;;;11.40;67.60;;;;;;5073268;28;20052;-69
2024/01/01 05:27:28;;;;;;;0.50;0.50;;;11.30;67.60;;;;;;5073370;28;20029;-68
2024/01/01 05:29:53;;;;;;;0.50;0.50;;;11.30;67.70;;;;;;5072511;28;20086;-69
2024/01/01 05:32:19;;;;;;;0.50;0.50;;;11.30;67.60;;;;;;5073327;28;20035;-69
2024/01/01 05:34:44;;;;;;;0.50;0.50;;;11.20;67.80;;;;;;5055494;28;20427;-70
2024/01/01 05:37:10;;;;;;;0.40;0.40;;;11.20;67.90;;;;;;5073148;28;20074;-69
2024/01/01 05:39:35;;;;;;;0.40;0.40;;;11.20;68.10;;;;;;5073515;28;20033;-72
2024/01/01 05:42:02;;;;;;;0.45;0.45;;;11.20;68.30;;;;;;5077406;28;20028;-72
2024/01/01 05:44:27;;;;;;;0.40;0.40;;;11.20;68.30;;;;;;5077124;28;20512;-72
2024/01/01 05:46:53;;;;;;;0.40;0.40;;;11.20;68.40;;;;;;5076409;28;20029;-72
2024/01/01 05:49:18;;;;;;;0.50;0.50;;;11.20;68.50;;;;;;5058500;28;20040;-72
2024/01/01 05:51:44;;;;;;;0.80;0.80;;;11.30;68.30;;;;;;5075925;28;20029;-72
2024/01/01 05:54:10;;;;;;;0.57;0.57;;;11.30;68.50;;;;;;5074435;28;20025;-72
2024/01/01 05:56:37;;;;;;;0.50;0.50;;;11.30;68.50;;;;;;5074404;28;20024;-72
2024/01/01 05:59:02;;;;;;;0.50;0.50;;;11.30;68.50;;;;;;5074391;28;20462;-72
2024/01/01 06:01:28;;;;;;;0.43;0.43;;;11.30;68.50;;;;;;5073960;28;20131;-72
2024/01/01 06:03:53;;;;;;;0.40;0.40;;;11.40;68.40;;;;;;5073861;28;20037;-72
2024/01/01 06:06:19;;;;;;;0.40;0.40;;;11.30;68.40;;;;;;5073686;28;20025;-72
2024/01/01 06:08:44;;;;;;;0.50;0.50;;;11.30;68.60;;;;;;5073128;28;20064;-72
2024/01/01 06:11:10;;;;;;;0.60;0.60;;;11.40;68.50;;;;;;5073326;28;20541;-72
2024/01/01 06:13:36;;;;;;;0.50;0.50;;;11.50;68.50;;;;;;5073168;28;20028;-72
2024/01/01 06:16:03;;;;;;;0.50;0.50;;;11.50;68.40;;;;;;5072902;28;20025;-72
2024/01/01 06:18:28;;;;;;;0.50;0.50;;;11.50;68.00;;;;;;5072428;28;20016;-72
2024/01/01 06:20:54;;;;;;;0.40;0.40;;;11.50;68.30;;;;;;5055227;28;20032;-72
2024/01/01 06:23:20;;;;;;;0.47;0.47;;;11.50;68.30;;;;;;5073234;28;20060;-72
2024/01/01 06:25:45;;;;;;;0.40;0.40;;;11.50;68.20;;;;;;5072873;28;20039;-72
2024/01/01 06:28:11;;;;;;;1.27;1.17;;;11.50;68.30;;;;;;5073374;28;20035;-72
2024/01/01 06:30:36;;;;;;;0.50;0.50;;;11.60;68.20;;;;;;5072233;28;20388;-72
2024/01/01 06:33:02;;;;;;;1.67;1.30;;;11.60;68.00;;;;;;5054446;28;20384;-72
2024/01/01 06:35:30;;;;;;;0.50;0.50;;;11.50;68.10;;;;;;5072573;28;20528;-72
2024/01/01 06:37:56;;;;;;;0.52;0.52;;;11.70;68.20;;;;;;5072726;28;20025;-72
2024/01/01 06:40:22;;;;;;;1.05;1.05;;;11.60;68.10;;;;;;5071841;28;20553;-72
2024/01/01 06:42:47;;;;;;;0.50;0.50;;;11.60;67.80;;;;;;5072331;28;20058;-72
2024/01/01 06:45:14;;;;;;;0.40;0.40;;;11.70;67.90;;;;;;5071966;28;20090;-72
2024/01/01 06:47:39;;;;;;;0.40;0.40;;;11.70;68.00;;;;;;5072278;28;20416;-72
2024/01/01 06:50:05;;;;;;;0.50;0.50;;;11.70;68.00;;;;;;5071871;28;20116;-69
2024/01/01 06:52:30;;;;;;;1.55;1.02;;;11.70;67.90;;;;;;5071924;28;20349;-69
2024/01/01 06:54:56;;;;;;;0.60;0.60;;;11.70;67.80;;;;;;5071394;28;20100;-70
2024/01/01 06:57:21;;;;;;;1.48;1.38;;;11.70;67.60;;;;;;5071420;28;20040;-69
2024/01/01 06:59:47;;;;;;;0.40;0.40;;;11.60;67.90;;;;;;5071565;28;20071;-70
2024/01/01 07:02:12;;;;;;;0.60;0.60;;;11.60;67.80;;;;;;5071671;28;20430;-70
2024/01/01 07:04:38;;;;;;;2.90;1.85;;;11.60;67.80;;;;;;5071498;28;20067;-67
2024/01/01 07:07:03;;;;;;;0.40;0.40;;;11.50;67.80;;;;;;5071538;28;20487;-68
2024/01/01 07:09:29;;;;;;;0.82;0.60;;;11.50;68.00;;;;;;5071317;28;20087;-68
2024/01/01 07:11:58;;;;;;;0.50;0.50;;;11.40;68.20;;;;;;5071478;28;20025;-68
2024/01/01 07:14:25;;;;;;;0.50;0.50;;;11.40;68.00;;;;;;5071318;28;20029;-68
2024/01/01 07:16:56;;;;;;;0.82;0.82;;;11.30;68.20;;;;;;5071430;28;20028;-68
2024/01/01 07:19:21;;;;;;;0.50;0.50;;;11.20;68.20;;;;;;5071266;28;20032;-68
2024/01/01 07:21:48;;;;;;;0.50;0.50;;;11.20;68.50;;;;;;5071377;28;20189;-69
2024/01/01 07:24:14;;;;;;;0.40;0.40;;;11.30;68.70;;;;;;5054778;28;20082;-73
2024/01/01 07:26:39;;;;;;;0.40;0.40;;;11.20;68.60;;;;;;5073180;28;20025;-73
2024/01/01 07:29:05;;;;;;;0.50;0.50;;;11.20;68.70;;;;;;5054701;28;20480;-73
2024/01/01 07:31:31;;;;;;;0.40;0.40;;;11.30;68.80;;;;;;5072213;28;20066;-73
2024/01/01 07:33:56;;;;;;;0.40;0.40;;;11.30;68.80;;;;;;5071955;28;20025;-73
2024/01/01 07:36:22;;;;;;;0.60;0.60;;;11.30;68.90;;;;;;5072489;28;20017;-72
2024/01/01 07:38:47;;;;;;;3.40;1.02;;;11.30;68.90;;;;;;5072350;28;20511;-73
2024/01/01 07:41:13;;;;;;;8.30;1.80;;;11.30;68.90;;;;;;5072259;28;20021;-73
2024/01/01 07:43:39;;;;;;;0.73;0.73;;;11.30;68.90;;;;;;5072951;28;20075;-73
2024/01/01 07:46:05;;;;;;;0.50;0.50;;;11.30;69.00;;;;;;5072252;28;20077;-73
2024/01/01 07:48:30;;;;;;;0.40;0.40;;;11.40;68.90;;;;;;5072193;28;20033;-73
2024/01/01 07:50:56;;;;;;;0.80;0.80;;;11.40;69.10;;;;;;5072279;28;20029;-73
2024/01/01 07:53:21;;;;;;;0.47;0.47;;;11.30;68.90;;;;;;5074645;28;20035;-73
2024/01/01 07:55:46;;;;;;;0.40;0.40;;;11.40;69.10;;;;;;5076255;28;20399;-73
2024/01/01 07:58:12;;;;;;;0.77;0.73;;;11.40;69.00;;;;;;5076631;28;20031;-73
2024/01/01 08:00:39;;;;;;;0.50;0.50;;;11.40;69.00;;;;;;5076211;28;20032;-73
2024/01/01 08:03:04;;;;;;;0.50;0.50;;;11.40;69.10;;;;;;5076222;28;20548;-73
2024/01/01 08:05:30;;;;;;;0.50;0.50;;;11.50;69.10;;;;;;5075931;28;20036;-73
2024/01/01 08:07:57;;;;;;;0.40;0.40;;;11.50;69.10;;;;;;5076086;28;20043;-73
2024/01/01 08:10:23;;;;;;;1.95;1.27;;;11.50;69.10;;;;;;5075650;28;20021;-73
2024/01/01 08:12:48;;;;;;;0.50;0.50;;;11.60;68.90;;;;;;5075903;28;20089;-73
2024/01/01 08:15:14;;;;;;;0.50;0.50;;;11.60;69.10;;;;;;5075701;28;20523;-73
2024/01/01 08:17:40;;;;;;;0.85;0.85;;;11.60;68.90;;;;;;5075057;28;20108;-73
2024/01/01 08:20:05;;;;;;;4.03;1.08;;;11.70;68.80;;;;;;5074975;28;20120;-73
2024/01/01 08:22:31;;;;;;;0.50;0.50;;;11.70;68.70;;;;;;5075159;28;20025;-73
2024/01/01 08:24:56;;;;;;;0.47;0.47;;;11.70;68.70;;;;;;5074996;28;20041;-73
2024/01/01 08:27:22;;;;;;;0.55;0.55;;;11.80;68.70;;;;;;5074765;28;20028;-72
2024/01/01 08:29:47;;;;;;;0.68;0.68;;;11.80;68.70;;;;;;5075435;28;20383;-72
2024/01/01 08:32:13;;;;;;;0.50;0.50;;;11.80;68.50;;;;;;5075593;28;20029;-72
2024/01/01 08:34:38;;;;;;;2.17;0.93;;;11.90;68.50;;;;;;5074987;28;20442;-72
2024/01/01 08:37:04;;;;;;;0.40;0.40;;;12.00;68.60;;;;;;5074953;28;20033;-72
2024/01/01 08:39:30;;;;;;;1.17;1.15;;;12.00;68.50;;;;;;5074571;28;20027;-72
2024/01/01 08:41:55;;;;;;;0.50;0.50;;;12.00;68.30;;;;;;5056475;28;20029;-71
2024/01/01 08:44:21;;;;;;;0.85;0.77;;;12.00;68.40;;;;;;5074143;28;20071;-72
2024/01/01 08:46:46;;;;;;;0.45;0.45;;;12.10;68.50;;;;;;5074460;28;20037;-72
2024/01/01 08:49:12;;;;;;;0.80;0.80;;;12.10;68.40;;;;;;5056335;28;20388;-72
2024/01/01 08:51:37;;;;;;;0.40;0.40;;;12.20;68.40;;;;;;5073892;28;20032;-72
2024/01/01 08:54:07;;;;;;;0.45;0.45;;;12.20;67.70;;;;;;5073955;28;20106;-72
2024/01/01 08:56:33;;;;;;;0.40;0.40;;;12.20;67.60;;;;;;5073674;28;20491;-72
2024/01/01 08:58:58;;;;;;;0.60;0.60;;;12.20;67.80;;;;;;5073838;28;20024;-72
2024/01/01 09:01:24;;;;;;;0.85;0.82;;;12.10;67.60;;;;;;5073638;28;20029;-72
2024/01/01 09:03:49;;;;;;;0.30;0.30;;;12.20;67.30;;;;;;5073164;28;20020;-72
2024/01/01 09:06:15;;;;;;;0.88;0.88;;;12.20;67.50;;;;;;5073219;28;20013;-72
2024/01/01 09:08:40;;;;;;;1.52;1.15;;;12.20;67.30;;;;;;5073595;28;20395;-73
2024/01/01 09:11:06;;;;;;;0.40;0.40;;;12.20;66.90;;;;;;5073434;28;20048;-72
2024/01/01 09:13:32;;;;;;;0.50;0.50;;;12.20;66.90;;;;;;5073349;28;20021;-72
2024/01/01 09:15:57;;;;;;;0.40;0.40;;;12.20;67.30;;;;;;5073425;28;20029;-72
2024/01/01 09:18:23;;;;;;;1.02;1.00;;;12.30;67.10;;;;;;5073384;28;20020;-72
2024/01/01 09:20:48;;;;;;;10.40;1.10;;;12.30;67.10;;;;;;5073437;28;20461;-73
2024/01/01 09:23:14;;;;;;;0.50;0.50;;;12.30;66.70;;;;;;5073236;28;20033;-72
2024/01/01 09:25:40;;;;;;;0.43;0.43;;;12.30;66.50;;;;;;5073225;28;20064;-72
2024/01/01 09:28:06;;;;;;;0.50;0.50;;;12.30;66.60;;;;;;5073568;28;20055;-72
2024/01/01 09:30:31;;;;;;;1.17;1.17;;;12.40;66.70;;;;;;5073190;28;20029;-72
2024/01/01 09:32:57;;;;;;;0.50;0.50;;;12.40;66.40;;;;;;5074195;28;20060;-70
2024/01/01 09:35:23;;;;;;;0.70;0.70;;;12.40;66.40;;;;;;5073331;28;20048;-69
2024/01/01 09:37:52;;;;;;;0.50;0.50;;;12.40;66.50;;;;;;5073235;28;20056;-70
2024/01/01 09:40:18;;;;;;;0.75;0.75;;;12.40;66.60;;;;;;5072841;28;20090;-75
2024/01/01 09:42:47;;;;;;;0.60;0.60;;;12.40;66.10;;;;;;5082936;28;20036;-75
2024/01/01 09:45:13;;;;;;;0.60;0.60;;;12.30;66.10;;;;;;5085054;28;20029;-75
2024/01/01 09:47:42;;;;;;;0.60;0.60;;;12.30;66.20;;;;;;5087689;28;20104;-75
2024/01/01 09:50:09;;;;;;;2.58;1.30;;;12.30;66.30;;;;;;5087538;28;20036;-75
2024/01/01 09:52:35;;;;;;;0.50;0.50;;;12.20;66.60;;;;;;5070468;28;20036;-75
2024/01/01 09:55:00;;;;;;;0.50;0.50;;;12.20;66.60;;;;;;5079320;28;20024;-75
2024/01/01 09:57:26;;;;;;;0.30;0.30;;;12.20;67.10;;;;;;5090770;28;20032;-75
2024/01/01 09:59:52;;;;;;;0.40;0.40;;;12.30;67.20;;;;;;5091713;28;20033;-76
2024/01/01 10:02:22;;;;;;;0.50;0.50;;;12.30;67.10;;;;;;5076173;28;20031;-74
2024/01/01 10:04:47;;;;;;;0.40;0.40;;;12.30;67.00;;;;;;5087435;28;20036;-75
2024/01/01 10:07:27;;;;;;;1.00;1.00;;;12.30;67.00;;;;;;5087511;28;20040;-75
2024/01/01 10:09:53;;;;;;;0.50;0.50;;;12.40;66.80;;;;;;5089587;28;20032;-74
2024/01/01 10:12:22;;;;;;;0.70;0.70;;;12.30;66.50;;;;;;5082471;28;20031;-75
2024/01/01 10:14:48;;;;;;;0.40;0.40;;;12.30;66.60;;;;;;5057589;28;20036;-74
2024/01/01 10:17:17;;;;;;;0.40;0.40;;;12.20;67.00;;;;;;5075321;28;20036;-75
2024/01/01 10:19:47;;;;;;;0.50;0.50;;;12.10;67.20;;;;;;5074705;28;20480;-74
2024/01/01 10:22:12;;;;;;;0.50;0.50;;;12.10;67.50;;;;;;5074083;28;20056;-74
2024/01/01 10:24:38;;;;;;;0.93;0.93;;;12.00;67.70;;;;;;5073753;28;20032;-75
2024/01/01 10:27:05;;;;;;;0.70;0.70;;;12.00;67.90;;;;;;5072856;28;20380;-74
2024/01/01 10:29:34;;;;;;;0.40;0.40;;;12.00;68.00;;;;;;5073480;28;20539;-74
2024/01/01 10:32:00;;;;;;;0.63;0.63;;;12.00;68.00;;;;;;5073572;28;20017;-74
2024/01/01 10:34:26;;;;;;;0.50;0.50;;;11.90;68.10;;;;;;5073715;28;20467;-74
2024/01/01 10:36:53;;;;;;;0.40;0.40;;;11.90;68.30;;;;;;5070308;28;20024;-74
2024/01/01 10:39:19;;;;;;;0.50;0.50;;;12.00;68.20;;;;;;5055511;28;20033;-74
2024/01/01 10:41:48;;;;;;;0.50;0.50;;;12.00;68.20;;;;;;5073754;28;20029;-74
2024/01/01 10:44:13;;;;;;;0.40;0.40;;;12.00;68.40;;;;;;5074509;28;20048;-74
2024/01/01 10:46:39;;;;;;;0.32;0.32;;;12.10;68.40;;;;;;5070552;28;20055;-74
2024/01/01 10:49:12;;;;;;;0.50;0.50;;;12.20;68.40;;;;;;5074534;28;20415;-74
2024/01/01 10:51:43;;;;;;;0.70;0.70;;;12.20;68.20;;;;;;5072089;28;20507;-74
2024/01/01 10:54:33;;;;;;;0.40;0.40;;;12.30;68.00;;;;;;5074254;28;20484;-74
2024/01/01 10:57:40;;;;;;;0.50;0.50;;;12.30;67.90;;;;;;5070802;28;20480;-74
2024/01/01 11:00:38;;;;;;;0.40;0.40;;;12.30;67.80;;;;;;5077398;28;20039;-75
2024/01/01 11:03:04;;;;;;;0.40;0.40;;;12.30;67.70;;;;;;5078533;28;20024;-75
2024/01/01 11:05:34;;;;;;;0.45;0.45;;;12.30;68.00;;;;;;5078688;28;20056;-75
2024/01/01 11:08:03;;;;;;;0.63;0.63;;;12.40;67.90;;;;;;5076736;28;20024;-75
2024/01/01 11:10:45;;;;;;;0.50;0.50;;;12.40;67.80;;;;;;5080196;28;20035;-75
2024/01/01 11:13:33;;;;;;;0.43;0.43;;;12.50;67.20;;;;;;5081546;28;20024;-76
2024/01/01 11:16:01;;;;;;;0.50;0.50;;;12.40;67.30;;;;;;5078824;28;20028;-76
2024/01/01 11:18:38;;;;;;;0.50;0.50;;;12.50;67.50;;;;;;5062465;28;20017;-74
2024/01/01 11:21:07;;;;;;;0.50;0.50;;;12.60;67.60;;;;;;5081939;28;20036;-74
2024/01/01 11:23:46;;;;;;;1.20;0.82;;;12.70;67.30;;;;;;5062838;28;20033;-75
2024/01/01 11:26:26;;;;;;;0.60;0.60;;;12.70;67.10;;;;;;5063667;28;20111;-75
2024/01/01 11:28:54;;;;;;;0.40;0.40;;;12.60;66.80;;;;;;5085417;28;20035;-75
2024/01/01 11:31:20;;;;;;;0.40;0.40;;;12.70;67.20;;;;;;5074331;28;20103;-74
2024/01/01 11:33:45;;;;;;;0.70;0.70;;;12.70;66.70;;;;;;5071205;28;20107;-74
2024/01/01 11:36:11;;;;;;;0.65;0.65;;;12.70;66.30;;;;;;5067084;28;20936;-74
2024/01/01 11:38:39;;;;;;;0.35;0.35;;;12.70;66.60;;;;;;5052795;28;20078;-74
2024/01/01 11:41:08;;;;;;;0.40;0.40;;;12.70;66.40;;;;;;5053036;28;20555;-74
2024/01/01 11:43:33;;;;;;;0.50;0.50;;;12.70;66.80;;;;;;5051168;28;20069;-73
2024/01/01 11:45:59;;;;;;;0.30;0.30;;;12.80;67.00;;;;;;5050301;28;20052;-74
2024/01/01 11:48:24;;;;;;;0.50;0.50;;;12.90;67.10;;;;;;5069191;28;20102;-74
2024/01/01 11:50:53;;;;;;;0.50;0.50;;;13.00;66.80;;;;;;5070350;28;20033;-73
2024/01/01 11:53:19;;;;;;;0.40;0.40;;;13.00;66.10;;;;;;5070587;28;20078;-73
2024/01/01 11:55:44;;;;;;;0.50;0.50;;;13.00;66.40;;;;;;5052979;28;20416;-73
2024/01/01 11:58:11;;;;;;;0.50;0.50;;;13.10;66.40;;;;;;5068232;28;20096;-73
2024/01/01 12:00:37;;;;;;;0.63;0.63;;;13.00;66.20;;;;;;5071274;28;20555;-74
2024/01/01 12:03:04;;;;;;;0.40;0.40;;;12.80;66.60;;;;;;5070877;28;20111;-74
2024/01/01 12:05:30;;;;;;;0.30;0.30;;;12.80;66.90;;;;;;5070917;28;20031;-74
2024/01/01 12:07:56;;;;;;;0.50;0.50;;;12.70;66.70;;;;;;5081989;28;20080;-74
2024/01/01 12:10:23;;;;;;;0.50;0.50;;;12.60;66.70;;;;;;5072745;28;20032;-74
2024/01/01 12:12:58;;;;;;;0.50;0.50;;;12.50;66.50;;;;;;5076963;28;20020;-73
2024/01/01 12:15:30;;;;;;;0.88;0.85;;;12.40;66.40;;;;;;5070462;28;20037;-73
2024/01/01 12:17:55;;;;;;;0.60;0.60;;;12.30;66.90;;;;;;5069263;28;20380;-74
2024/01/01 12:20:23;;;;;;;0.47;0.47;;;12.20;67.40;;;;;;5070727;28;20029;-75
2024/01/01 12:22:49;;;;;;;0.45;0.45;;;12.20;67.80;;;;;;5070925;28;20039;-73
2024/01/01 12:25:16;;;;;;;0.50;0.50;;;12.10;68.20;;;;;;5070630;28;20033;-73
2024/01/01 12:27:42;;;;;;;0.47;0.47;;;12.10;68.20;;;;;;5069179;28;20028;-73
2024/01/01 12:30:08;;;;;;;0.40;0.40;;;12.10;68.30;;;;;;5070593;28;20116;-74
2024/01/01 12:32:34;;;;;;;0.75;0.75;;;12.00;68.30;;;;;;5070542;28;20037;-74
2024/01/01 12:35:03;;;;;;;0.40;0.40;;;11.90;68.70;;;;;;5070547;28;20038;-73
2024/01/01 12:37:29;;;;;;;1.17;1.08;;;11.90;68.90;;;;;;5067579;28;20024;-73
2024/01/01 12:39:54;;;;;;;0.50;0.50;;;11.90;69.10;;;;;;5073195;28;20039;-73
2024/01/01 12:42:20;;;;;;;0.65;0.65;;;11.90;69.30;;;;;;5056008;28;20025;-74
2024/01/01 12:44:45;;;;;;;0.40;0.40;;;11.90;69.50;;;;;;5073594;28;20078;-74